SoundGuardian — WDI8675 — position and weather

sailwx.info

Track history (hours):
 
Tides and Currents Weather Stations Pressure Air Temp Water Temp Dewpoint Dewpoint Depression Visibility Wind Speed Wind Dir Waves Ship Positions

Oceanographic research ship SoundGuardian (United States)

Owner: King County Environmental Laboratory, Seattle, WA. More information available from US FCC via Universal Licensing System and Coast Guard Vessel Documentation Center.

Last reported at 2020-Jan-13 20:31 UTC. Time now 2020-Jan-21 22:35 UTC.
Position N 47°38' W 122°20'.
Warning: this ship's position is 8 days out of date.

Length 13 m; draft 1 m.

Type: Other ship. MMSI: 367741020.

Date/timePositionNaut miles runAvg speedWind from/ knotsBaromVisibWave heightAir tempDewpointWater temp
2020-Jan-13 20:31N 47°38' W 122°20'4 1.6
2020-Jan-13 18:00N 47°36' W 122°15'1 1.0
2020-Jan-13 16:58N 47°37' W 122°15'  
2020-Jan-08 21:00N 47°22' W 122°23'3 5.9
2020-Jan-08 20:30N 47°24' W 122°23'8 7.9
2020-Jan-08 19:30N 47°32' W 122°26'0 0.1
2020-Jan-08 19:00N 47°32' W 122°26'1 1.1
2020-Jan-08 18:00N 47°32' W 122°24'0 0.0
2020-Jan-08 17:30N 47°32' W 122°24'8 3.8
2020-Jan-08 15:30N 47°40' W 122°24'1 2.9
2020-Jan-08 15:00N 47°39' W 122°22'0 0.0
2020-Jan-08 00:31N 47°39' W 122°22'2 1.9
2020-Jan-07 23:31N 47°40' W 122°24'5 2.2
2020-Jan-07 21:00N 47°35' W 122°21'12 4.7
2020-Jan-07 18:30N 47°47' W 122°25'8 0.3
2020-Jan-06 19:23N 47°39' W 122°22'2 4.4
2020-Jan-06 19:01N 47°40' W 122°24'2 0.9
2020-Jan-06 16:31N 47°42' W 122°24'2 4.5
2020-Jan-06 16:00N 47°40' W 122°24'2 1.6
2020-Jan-06 15:00N 47°39' W 122°22'  
Track history (hours):
 
Tides and Currents Weather Stations Pressure Air Temp Water Temp Dewpoint Dewpoint Depression Visibility Wind Speed Wind Dir Waves Ship Positions

Oceanographic research ship SoundGuardian (United States)

Owner: King County Environmental Laboratory, Seattle, WA. More information available from US FCC via Universal Licensing System and Coast Guard Vessel Documentation Center.

Last reported at 2020-Jan-13 20:31 UTC. Time now 2020-Jan-21 22:35 UTC.
Position N 47°38' W 122°20'.
Warning: this ship's position is 8 days out of date.

Length 13 m; draft 1 m.

Type: Other ship. MMSI: 367741020.

Date/timePositionNaut miles runAvg speedWind from/ knotsBaromVisibWave heightAir tempDewpointWater temp
2020-Jan-13 20:31N 47°38' W 122°20'4 1.6
2020-Jan-13 18:00N 47°36' W 122°15'1 1.0
2020-Jan-13 16:58N 47°37' W 122°15'  
2020-Jan-08 21:00N 47°22' W 122°23'3 5.9
2020-Jan-08 20:30N 47°24' W 122°23'8 7.9
2020-Jan-08 19:30N 47°32' W 122°26'0 0.1
2020-Jan-08 19:00N 47°32' W 122°26'1 1.1
2020-Jan-08 18:00N 47°32' W 122°24'0 0.0
2020-Jan-08 17:30N 47°32' W 122°24'8 3.8
2020-Jan-08 15:30N 47°40' W 122°24'1 2.9
2020-Jan-08 15:00N 47°39' W 122°22'0 0.0
2020-Jan-08 00:31N 47°39' W 122°22'2 1.9
2020-Jan-07 23:31N 47°40' W 122°24'5 2.2
2020-Jan-07 21:00N 47°35' W 122°21'12 4.7
2020-Jan-07 18:30N 47°47' W 122°25'8 0.3
2020-Jan-06 19:23N 47°39' W 122°22'2 4.4
2020-Jan-06 19:01N 47°40' W 122°24'2 0.9
2020-Jan-06 16:31N 47°42' W 122°24'2 4.5
2020-Jan-06 16:00N 47°40' W 122°24'2 1.6
2020-Jan-06 15:00N 47°39' W 122°22'  

Dump ship's entire track history